STS Fryderyk Chopin — SPS2298 — position and weather

sailwx.info

Track history (hours):
 
Tides and Currents Weather Stations Pressure Air Temp Water Temp Dewpoint Dewpoint Depression Visibility Wind Speed Wind Dir Waves Ship Positions

STS Fryderyk Chopin (Poland)

Ship's website: http://www.fryderykchopin.pl/

Last reported at 2017-Nov-11 19:31 UTC. Time now 2017-Nov-20 15:45 UTC.
Position N 36°08' W 005°08'.
Warning: this ship's position is 8 days out of date.

Length 44 m; draft 4.2 m.

Type: Sailing vessel. MMSI: 261000290.

Date/timePositionNaut miles runAvg speedWind from/ knotsBaromVisibWave heightAir tempDewpointWater temp
2017-Nov-11 19:31N 36°08' W 005°08'0 2.8
2017-Nov-11 19:28N 36°08' W 005°08'2 3.5
2017-Nov-11 19:00N 36°08' W 005°10'2 5.0
2017-Nov-11 18:30N 36°08' W 005°13'3 5.5
2017-Nov-11 18:00N 36°07' W 005°16'3 5.8
2017-Nov-11 17:30N 36°06' W 005°20'3 5.2
2017-Nov-11 17:00N 36°07' W 005°23'2 0.1
2017-Nov-09 21:42N 36°10' W 005°22'1 6.2
2017-Nov-09 21:30N 36°09' W 005°23'4 7.7
2017-Nov-09 20:59N 36°05' W 005°21'4 8.8
2017-Nov-09 20:30N 36°02' W 005°18'4 7.5
2017-Nov-09 20:00N 35°60' W 005°22'144 5.8
2017-Nov-08 19:02N 36°56' W 008°08'0 5.2
2017-Nov-08 18:57N 36°56' W 008°08'3 5.6
2017-Nov-08 18:30N 36°57' W 008°11'3 6.1
2017-Nov-08 18:00N 36°57' W 008°15'3 6.1
2017-Nov-08 17:30N 36°57' W 008°19'4 7.3
2017-Nov-08 17:00N 36°58' W 008°23'3 5.1
2017-Nov-08 16:30N 36°58' W 008°26'3 6.3
2017-Nov-08 16:00N 36°59' W 008°30'3 6.4
2017-Nov-08 15:30N 36°59' W 008°34'3 5.7
2017-Nov-08 15:00N 36°59' W 008°38'3 5.3
2017-Nov-08 14:29N 36°59' W 008°41'2 4.4
2017-Nov-08 14:00N 36°59' W 008°44'2 3.3
2017-Nov-08 13:28N 36°59' W 008°46'1 1.9
2017-Nov-08 13:00N 36°59' W 008°47'0 0.4
2017-Nov-08 12:30N 36°59' W 008°47'0 0.3
2017-Nov-08 12:00N 36°59' W 008°47'0 0.4
2017-Nov-08 11:30N 36°59' W 008°47'33 6.3
2017-Nov-08 06:17N 37°27' W 009°08'2 7.8
2017-Nov-08 06:00N 37°29' W 009°09'4 7.7
2017-Nov-08 05:30N 37°33' W 009°09'4 7.3
2017-Nov-08 05:00N 37°37' W 009°10'4 7.3
2017-Nov-08 04:26N 37°41' W 009°11'2 5.3
2017-Nov-08 04:01N 37°43' W 009°12'2 4.5
2017-Nov-08 03:30N 37°45' W 009°12'3 5.6
2017-Nov-08 03:00N 37°48' W 009°13'3 6.4
2017-Nov-08 02:30N 37°51' W 009°13'3 6.7
2017-Nov-08 02:00N 37°54' W 009°14'3 6.6
2017-Nov-08 01:31N 37°58' W 009°15'3 6.6
2017-Nov-08 01:00N 38°01' W 009°16'3 6.3
2017-Nov-08 00:30N 38°04' W 009°16'3 6.2
2017-Nov-08 00:01N 38°07' W 009°17'3 5.1
2017-Nov-07 23:31N 38°09' W 009°18'3 5.5
2017-Nov-07 23:00N 38°12' W 009°19'3 6.4
2017-Nov-07 22:30N 38°15' W 009°19'4 7.3
2017-Nov-07 22:00N 38°19' W 009°20'4 8.6
2017-Nov-07 21:30N 38°23' W 009°21'4 8.0
2017-Nov-07 21:00N 38°27' W 009°21'3 7.0
2017-Nov-07 20:30N 38°31' W 009°22'3 7.0
2017-Nov-07 20:01N 38°34' W 009°23'3 6.8
2017-Nov-07 19:30N 38°37' W 009°23'4 8.2
2017-Nov-07 19:01N 38°42' W 009°24'0 0.2
2017-Nov-07 18:09N 38°42' W 009°24'0 0.0
2017-Nov-07 18:00N 38°42' W 009°24'0 0.0
2017-Nov-07 17:09N 38°42' W 009°24'0 0.0
2017-Nov-07 16:15N 38°42' W 009°24'0 0.0
2017-Nov-07 14:54N 38°42' W 009°24'0 0.0
2017-Nov-07 14:21N 38°42' W 009°24'0 0.0
2017-Nov-07 13:48N 38°42' W 009°24'0 0.0
2017-Nov-07 13:27N 38°42' W 009°24'0 0.0
2017-Nov-07 12:45N 38°42' W 009°24'0 0.0
2017-Nov-07 10:39N 38°42' W 009°24'0 0.1
2017-Nov-07 10:30N 38°42' W 009°24'0 0.0
2017-Nov-07 10:00N 38°42' W 009°24'0 0.0
2017-Nov-07 09:30N 38°42' W 009°24'0 0.0
2017-Nov-07 09:00N 38°42' W 009°24'0 0.0
2017-Nov-07 08:24N 38°42' W 009°24'0 0.0
2017-Nov-07 08:00N 38°42' W 009°24'0 0.0
2017-Nov-07 07:30N 38°42' W 009°24'0 0.0
2017-Nov-07 07:00N 38°42' W 009°24'0 0.0
2017-Nov-07 06:30N 38°42' W 009°24'0 0.0
2017-Nov-07 05:30N 38°42' W 009°24'0 0.0
2017-Nov-07 05:00N 38°42' W 009°24'0 0.0
2017-Nov-07 04:21N 38°42' W 009°24'0 0.0
2017-Nov-07 04:00N 38°42' W 009°24'0 0.0
2017-Nov-07 03:30N 38°42' W 009°24'0 0.0
2017-Nov-07 03:00N 38°42' W 009°24'0 0.0
2017-Nov-07 02:30N 38°42' W 009°24'0 0.0
2017-Nov-07 02:00N 38°42' W 009°24'0 0.0
2017-Nov-07 01:30N 38°42' W 009°24'0 0.0
2017-Nov-07 00:48N 38°42' W 009°24'0 0.0
2017-Nov-07 00:30N 38°42' W 009°24'0 0.0
2017-Nov-06 23:54N 38°42' W 009°24'0 0.0
2017-Nov-06 23:18N 38°42' W 009°24'0 0.0
2017-Nov-06 22:57N 38°42' W 009°24'0 0.0
2017-Nov-06 22:06N 38°42' W 009°24'0 0.0
2017-Nov-06 21:54N 38°42' W 009°24'0 0.0
2017-Nov-06 21:09N 38°42' W 009°24'0 0.0
2017-Nov-06 20:54N 38°42' W 009°24'0 0.0
2017-Nov-06 20:21N 38°42' W 009°24'0 0.0
2017-Nov-06 01:57N 38°42' W 009°24'0 0.0
2017-Nov-06 00:51N 38°42' W 009°24'0 0.0
2017-Nov-05 23:45N 38°42' W 009°24'0 0.0
2017-Nov-05 23:18N 38°42' W 009°24'0 0.0
2017-Nov-05 20:48N 38°42' W 009°24'0 0.0
2017-Nov-05 20:24N 38°42' W 009°24'0 0.0
2017-Nov-05 20:00N 38°42' W 009°24'0 0.0
2017-Nov-05 19:24N 38°42' W 009°24'0 0.1
2017-Nov-05 18:57N 38°42' W 009°24'0 0.0
2017-Nov-05 17:42N 38°42' W 009°24'0 0.0
2017-Nov-05 17:24N 38°42' W 009°24'0 0.0
2017-Nov-05 16:54N 38°42' W 009°24'0 0.0
2017-Nov-05 16:24N 38°42' W 009°24'0 0.2
2017-Nov-05 15:49N 38°42' W 009°24'2 5.4
2017-Nov-05 15:30N 38°41' W 009°22'3 6.1
2017-Nov-05 15:00N 38°41' W 009°19'1 1.5
2017-Nov-05 14:30N 38°40' W 009°19'1 2.0
2017-Nov-05 14:01N 38°40' W 009°20'4 7.0
2017-Nov-05 13:30N 38°42' W 009°24'0 0.1
2017-Nov-05 12:49N 38°42' W 009°24'0 0.0
2017-Nov-05 12:28N 38°42' W 009°24'0 0.0
2017-Nov-05 11:55N 38°42' W 009°24'0 0.0
2017-Nov-05 11:07N 38°42' W 009°24'0 0.1
2017-Nov-05 10:55N 38°42' W 009°24'0 0.0
2017-Nov-05 10:28N 38°42' W 009°24'0 0.0
2017-Nov-05 09:58N 38°42' W 009°24'0 0.0
2017-Nov-05 09:19N 38°42' W 009°24'0 0.0
2017-Nov-05 08:55N 38°42' W 009°24'0 0.0
2017-Nov-05 08:22N 38°42' W 009°24'0 0.0
2017-Nov-05 07:59N 38°42' W 009°24'2 4.7
2017-Nov-05 07:31N 38°41' W 009°27'1 2.9
2017-Nov-05 07:00N 38°42' W 009°29'4 8.8
2017-Nov-05 06:30N 38°45' W 009°33'4 8.5
2017-Nov-05 06:01N 38°49' W 009°35'4 8.0
2017-Nov-05 05:31N 38°53' W 009°35'4 8.1
2017-Nov-05 05:01N 38°57' W 009°36'4 8.0
2017-Nov-05 04:31N 39°01' W 009°38'4 8.4
2017-Nov-05 04:01N 39°05' W 009°39'4 8.2
2017-Nov-05 03:30N 39°09' W 009°41'4 8.4
2017-Nov-05 03:00N 39°13' W 009°42'5 8.3
2017-Nov-05 02:27N 39°17' W 009°45'  
Track history (hours):
 
Tides and Currents Weather Stations Pressure Air Temp Water Temp Dewpoint Dewpoint Depression Visibility Wind Speed Wind Dir Waves Ship Positions

STS Fryderyk Chopin (Poland)

Ship's website: http://www.fryderykchopin.pl/

Last reported at 2017-Nov-11 19:31 UTC. Time now 2017-Nov-20 15:45 UTC.
Position N 36°08' W 005°08'.
Warning: this ship's position is 8 days out of date.

Length 44 m; draft 4.2 m.

Type: Sailing vessel. MMSI: 261000290.

Date/timePositionNaut miles runAvg speedWind from/ knotsBaromVisibWave heightAir tempDewpointWater temp
2017-Nov-11 19:31N 36°08' W 005°08'0 2.8
2017-Nov-11 19:28N 36°08' W 005°08'2 3.5
2017-Nov-11 19:00N 36°08' W 005°10'2 5.0
2017-Nov-11 18:30N 36°08' W 005°13'3 5.5
2017-Nov-11 18:00N 36°07' W 005°16'3 5.8
2017-Nov-11 17:30N 36°06' W 005°20'3 5.2
2017-Nov-11 17:00N 36°07' W 005°23'2 0.1
2017-Nov-09 21:42N 36°10' W 005°22'1 6.2
2017-Nov-09 21:30N 36°09' W 005°23'4 7.7
2017-Nov-09 20:59N 36°05' W 005°21'4 8.8
2017-Nov-09 20:30N 36°02' W 005°18'4 7.5
2017-Nov-09 20:00N 35°60' W 005°22'144 5.8
2017-Nov-08 19:02N 36°56' W 008°08'0 5.2
2017-Nov-08 18:57N 36°56' W 008°08'3 5.6
2017-Nov-08 18:30N 36°57' W 008°11'3 6.1
2017-Nov-08 18:00N 36°57' W 008°15'3 6.1
2017-Nov-08 17:30N 36°57' W 008°19'4 7.3
2017-Nov-08 17:00N 36°58' W 008°23'3 5.1
2017-Nov-08 16:30N 36°58' W 008°26'3 6.3
2017-Nov-08 16:00N 36°59' W 008°30'3 6.4
2017-Nov-08 15:30N 36°59' W 008°34'3 5.7
2017-Nov-08 15:00N 36°59' W 008°38'3 5.3
2017-Nov-08 14:29N 36°59' W 008°41'2 4.4
2017-Nov-08 14:00N 36°59' W 008°44'2 3.3
2017-Nov-08 13:28N 36°59' W 008°46'1 1.9
2017-Nov-08 13:00N 36°59' W 008°47'0 0.4
2017-Nov-08 12:30N 36°59' W 008°47'0 0.3
2017-Nov-08 12:00N 36°59' W 008°47'0 0.4
2017-Nov-08 11:30N 36°59' W 008°47'33 6.3
2017-Nov-08 06:17N 37°27' W 009°08'2 7.8
2017-Nov-08 06:00N 37°29' W 009°09'4 7.7
2017-Nov-08 05:30N 37°33' W 009°09'4 7.3
2017-Nov-08 05:00N 37°37' W 009°10'4 7.3
2017-Nov-08 04:26N 37°41' W 009°11'2 5.3
2017-Nov-08 04:01N 37°43' W 009°12'2 4.5
2017-Nov-08 03:30N 37°45' W 009°12'3 5.6
2017-Nov-08 03:00N 37°48' W 009°13'3 6.4
2017-Nov-08 02:30N 37°51' W 009°13'3 6.7
2017-Nov-08 02:00N 37°54' W 009°14'3 6.6
2017-Nov-08 01:31N 37°58' W 009°15'3 6.6
2017-Nov-08 01:00N 38°01' W 009°16'3 6.3
2017-Nov-08 00:30N 38°04' W 009°16'3 6.2
2017-Nov-08 00:01N 38°07' W 009°17'3 5.1
2017-Nov-07 23:31N 38°09' W 009°18'3 5.5
2017-Nov-07 23:00N 38°12' W 009°19'3 6.4
2017-Nov-07 22:30N 38°15' W 009°19'4 7.3
2017-Nov-07 22:00N 38°19' W 009°20'4 8.6
2017-Nov-07 21:30N 38°23' W 009°21'4 8.0
2017-Nov-07 21:00N 38°27' W 009°21'3 7.0
2017-Nov-07 20:30N 38°31' W 009°22'3 7.0
2017-Nov-07 20:01N 38°34' W 009°23'3 6.8
2017-Nov-07 19:30N 38°37' W 009°23'4 8.2
2017-Nov-07 19:01N 38°42' W 009°24'0 0.2
2017-Nov-07 18:09N 38°42' W 009°24'0 0.0
2017-Nov-07 18:00N 38°42' W 009°24'0 0.0
2017-Nov-07 17:09N 38°42' W 009°24'0 0.0
2017-Nov-07 16:15N 38°42' W 009°24'0 0.0
2017-Nov-07 14:54N 38°42' W 009°24'0 0.0
2017-Nov-07 14:21N 38°42' W 009°24'0 0.0
2017-Nov-07 13:48N 38°42' W 009°24'0 0.0
2017-Nov-07 13:27N 38°42' W 009°24'0 0.0
2017-Nov-07 12:45N 38°42' W 009°24'0 0.0
2017-Nov-07 10:39N 38°42' W 009°24'0 0.1
2017-Nov-07 10:30N 38°42' W 009°24'0 0.0
2017-Nov-07 10:00N 38°42' W 009°24'0 0.0
2017-Nov-07 09:30N 38°42' W 009°24'0 0.0
2017-Nov-07 09:00N 38°42' W 009°24'0 0.0
2017-Nov-07 08:24N 38°42' W 009°24'0 0.0
2017-Nov-07 08:00N 38°42' W 009°24'0 0.0
2017-Nov-07 07:30N 38°42' W 009°24'0 0.0
2017-Nov-07 07:00N 38°42' W 009°24'0 0.0
2017-Nov-07 06:30N 38°42' W 009°24'0 0.0
2017-Nov-07 05:30N 38°42' W 009°24'0 0.0
2017-Nov-07 05:00N 38°42' W 009°24'0 0.0
2017-Nov-07 04:21N 38°42' W 009°24'0 0.0
2017-Nov-07 04:00N 38°42' W 009°24'0 0.0
2017-Nov-07 03:30N 38°42' W 009°24'0 0.0
2017-Nov-07 03:00N 38°42' W 009°24'0 0.0
2017-Nov-07 02:30N 38°42' W 009°24'0 0.0
2017-Nov-07 02:00N 38°42' W 009°24'0 0.0
2017-Nov-07 01:30N 38°42' W 009°24'0 0.0
2017-Nov-07 00:48N 38°42' W 009°24'0 0.0
2017-Nov-07 00:30N 38°42' W 009°24'0 0.0
2017-Nov-06 23:54N 38°42' W 009°24'0 0.0
2017-Nov-06 23:18N 38°42' W 009°24'0 0.0
2017-Nov-06 22:57N 38°42' W 009°24'0 0.0
2017-Nov-06 22:06N 38°42' W 009°24'0 0.0
2017-Nov-06 21:54N 38°42' W 009°24'0 0.0
2017-Nov-06 21:09N 38°42' W 009°24'0 0.0
2017-Nov-06 20:54N 38°42' W 009°24'0 0.0
2017-Nov-06 20:21N 38°42' W 009°24'0 0.0
2017-Nov-06 01:57N 38°42' W 009°24'0 0.0
2017-Nov-06 00:51N 38°42' W 009°24'0 0.0
2017-Nov-05 23:45N 38°42' W 009°24'0 0.0
2017-Nov-05 23:18N 38°42' W 009°24'0 0.0
2017-Nov-05 20:48N 38°42' W 009°24'0 0.0
2017-Nov-05 20:24N 38°42' W 009°24'0 0.0
2017-Nov-05 20:00N 38°42' W 009°24'0 0.0
2017-Nov-05 19:24N 38°42' W 009°24'0 0.1
2017-Nov-05 18:57N 38°42' W 009°24'0 0.0
2017-Nov-05 17:42N 38°42' W 009°24'0 0.0
2017-Nov-05 17:24N 38°42' W 009°24'0 0.0
2017-Nov-05 16:54N 38°42' W 009°24'0 0.0
2017-Nov-05 16:24N 38°42' W 009°24'0 0.2
2017-Nov-05 15:49N 38°42' W 009°24'2 5.4
2017-Nov-05 15:30N 38°41' W 009°22'3 6.1
2017-Nov-05 15:00N 38°41' W 009°19'1 1.5
2017-Nov-05 14:30N 38°40' W 009°19'1 2.0
2017-Nov-05 14:01N 38°40' W 009°20'4 7.0
2017-Nov-05 13:30N 38°42' W 009°24'0 0.1
2017-Nov-05 12:49N 38°42' W 009°24'0 0.0
2017-Nov-05 12:28N 38°42' W 009°24'0 0.0
2017-Nov-05 11:55N 38°42' W 009°24'0 0.0
2017-Nov-05 11:07N 38°42' W 009°24'0 0.1
2017-Nov-05 10:55N 38°42' W 009°24'0 0.0
2017-Nov-05 10:28N 38°42' W 009°24'0 0.0
2017-Nov-05 09:58N 38°42' W 009°24'0 0.0
2017-Nov-05 09:19N 38°42' W 009°24'0 0.0
2017-Nov-05 08:55N 38°42' W 009°24'0 0.0
2017-Nov-05 08:22N 38°42' W 009°24'0 0.0
2017-Nov-05 07:59N 38°42' W 009°24'2 4.7
2017-Nov-05 07:31N 38°41' W 009°27'1 2.9
2017-Nov-05 07:00N 38°42' W 009°29'4 8.8
2017-Nov-05 06:30N 38°45' W 009°33'4 8.5
2017-Nov-05 06:01N 38°49' W 009°35'4 8.0
2017-Nov-05 05:31N 38°53' W 009°35'4 8.1
2017-Nov-05 05:01N 38°57' W 009°36'4 8.0
2017-Nov-05 04:31N 39°01' W 009°38'4 8.4
2017-Nov-05 04:01N 39°05' W 009°39'4 8.2
2017-Nov-05 03:30N 39°09' W 009°41'4 8.4
2017-Nov-05 03:00N 39°13' W 009°42'5 8.3
2017-Nov-05 02:27N 39°17' W 009°45'  

Dump ship's entire track history